createdAt,value
2023-02-02T00:02:21.283Z,98142.00
2023-02-02T00:04:47.985Z,98147.09
2023-02-02T00:07:14.631Z,98144.44
2023-02-02T00:09:41.336Z,98142.63
2023-02-02T00:12:08.968Z,98143.13
2023-02-02T00:14:35.745Z,98130.47
2023-02-02T00:17:02.380Z,98131.56
2023-02-02T00:19:29.532Z,98130.00
2023-02-02T00:21:56.242Z,98129.16
2023-02-02T00:24:22.996Z,98130.00
2023-02-02T00:26:54.464Z,98131.16
2023-02-02T00:29:23.409Z,98124.88
2023-02-02T00:31:50.270Z,98130.06
2023-02-02T00:34:16.967Z,98125.25
2023-02-02T00:36:43.662Z,98130.66
2023-02-02T00:39:11.166Z,98121.97
2023-02-02T00:41:37.799Z,98126.31
2023-02-02T00:44:04.536Z,98131.16
2023-02-02T00:46:31.225Z,98119.69
2023-02-02T00:48:57.865Z,98117.09
2023-02-02T00:51:24.505Z,98120.38
2023-02-02T00:53:51.246Z,98120.66
2023-02-02T00:56:17.888Z,98117.34
2023-02-02T00:58:44.539Z,98110.19
2023-02-02T01:01:18.013Z,98112.00
2023-02-02T01:03:44.714Z,98112.78
2023-02-02T01:06:11.340Z,98117.25
2023-02-02T01:08:37.970Z,98115.78
2023-02-02T01:11:04.964Z,98110.13
2023-02-02T01:13:31.589Z,98114.28
2023-02-02T01:15:59.036Z,98120.72
2023-02-02T01:18:25.689Z,98114.41
2023-02-02T01:21:03.280Z,98122.19
2023-02-02T01:23:30.048Z,98121.47
2023-02-02T01:25:57.761Z,98121.34
2023-02-02T01:28:24.517Z,98120.97
2023-02-02T01:30:51.212Z,98114.47
2023-02-02T01:33:18.008Z,98113.84
2023-02-02T01:35:48.222Z,98116.72
2023-02-02T01:38:14.908Z,98123.81
2023-02-02T01:41:02.905Z,98118.13
2023-02-02T01:43:31.481Z,98120.31
2023-02-02T01:45:58.521Z,98132.00
2023-02-02T01:48:29.251Z,98130.81
2023-02-02T01:51:01.189Z,98135.16
2023-02-02T01:53:27.856Z,98128.91
2023-02-02T01:55:54.484Z,98126.28
2023-02-02T01:58:35.494Z,98123.81
2023-02-02T02:01:02.154Z,98117.78
2023-02-02T02:03:30.361Z,98117.66
2023-02-02T02:06:02.365Z,98125.75
2023-02-02T02:08:38.434Z,98121.50
2023-02-02T02:11:05.142Z,98117.50
2023-02-02T02:13:32.294Z,98126.19
2023-02-02T02:16:06.136Z,98125.78
2023-02-02T02:18:44.826Z,98118.56
2023-02-02T02:21:19.711Z,98119.75
2023-02-02T02:23:55.394Z,98123.69
2023-02-02T02:26:47.059Z,98122.00
2023-02-02T02:29:35.662Z,98124.03
2023-02-02T02:32:08.507Z,98128.69
2023-02-02T02:35:02.379Z,98132.19
2023-02-02T02:37:32.802Z,98135.16
2023-02-02T02:40:03.891Z,98139.19
2023-02-02T02:42:31.652Z,98133.75
2023-02-02T02:44:58.287Z,98134.72
2023-02-02T02:47:24.978Z,98137.25
2023-02-02T02:49:51.619Z,98139.28
2023-02-02T02:52:18.324Z,98142.44
2023-02-02T02:54:55.606Z,98144.13
2023-02-02T02:57:56.788Z,98144.88
2023-02-02T03:00:27.509Z,98143.16
2023-02-02T03:03:26.303Z,98134.13
2023-02-02T03:06:02.540Z,98133.28
2023-02-02T03:08:32.933Z,98134.47
2023-02-02T03:10:59.619Z,98127.38
2023-02-02T03:13:26.295Z,98132.91
2023-02-02T03:15:52.968Z,98134.84
2023-02-02T03:18:20.322Z,98128.56
2023-02-02T03:20:46.965Z,98129.06
2023-02-02T03:23:13.604Z,98132.06
2023-02-02T03:25:40.245Z,98122.06
2023-02-02T03:28:06.877Z,98125.06
2023-02-02T03:30:33.933Z,98122.06
2023-02-02T03:33:00.559Z,98129.19
2023-02-02T03:35:27.191Z,98136.41
2023-02-02T03:37:53.852Z,98135.56
2023-02-02T03:40:20.496Z,98137.03
2023-02-02T03:42:47.147Z,98129.91
2023-02-02T03:45:13.877Z,98127.06
2023-02-02T03:47:40.519Z,98123.63
2023-02-02T03:50:09.778Z,98125.97
2023-02-02T03:52:36.557Z,98121.63
2023-02-02T03:55:03.182Z,98118.03
2023-02-02T03:57:31.081Z,98121.41
2023-02-02T03:59:57.710Z,98117.91
2023-02-02T04:02:24.359Z,98116.22
2023-02-02T04:04:50.980Z,98118.03
2023-02-02T04:07:17.611Z,98117.28
2023-02-02T04:09:44.308Z,98122.31
2023-02-02T04:12:10.949Z,98116.34
2023-02-02T04:14:37.605Z,98125.63
2023-02-02T04:17:04.222Z,98129.22
2023-02-02T04:19:30.872Z,98127.41
2023-02-02T04:21:57.554Z,98123.25
2023-02-02T04:24:24.212Z,98124.53
2023-02-02T04:26:50.881Z,98125.50
2023-02-02T04:29:17.581Z,98122.84
2023-02-02T04:31:44.298Z,98121.03
2023-02-02T04:34:10.948Z,98117.03
2023-02-02T04:36:37.590Z,98123.50
2023-02-02T04:39:04.251Z,98122.53
2023-02-02T04:41:30.921Z,98132.19
2023-02-02T04:43:57.536Z,98135.50
2023-02-02T04:46:24.170Z,98131.53
2023-02-02T04:48:50.829Z,98139.91
2023-02-02T04:51:17.484Z,98140.13
2023-02-02T04:53:44.132Z,98142.88
2023-02-02T04:56:16.200Z,98145.31
2023-02-02T04:58:43.297Z,98144.88
2023-02-02T05:01:15.393Z,98143.69
2023-02-02T05:03:42.069Z,98144.19
2023-02-02T05:06:08.694Z,98145.03
2023-02-02T05:08:35.900Z,98149.50
2023-02-02T05:11:13.604Z,98151.53
2023-02-02T05:13:40.345Z,98144.97
2023-02-02T05:16:07.247Z,98153.22
2023-02-02T05:18:33.925Z,98149.31
2023-02-02T05:21:01.217Z,98152.31
2023-02-02T05:23:27.900Z,98152.31
2023-02-02T05:25:54.654Z,98147.50
2023-02-02T05:28:23.300Z,98149.97
2023-02-02T05:30:50.090Z,98151.44
2023-02-02T05:33:16.769Z,98154.19
2023-02-02T05:35:47.934Z,98155.44
2023-02-02T05:38:14.709Z,98161.44
2023-02-02T05:40:41.368Z,98157.50
2023-02-02T05:43:08.038Z,98174.56
2023-02-02T05:45:34.697Z,98174.69
2023-02-02T05:48:01.384Z,98172.22
2023-02-02T05:50:28.445Z,98171.16
2023-02-02T05:52:55.097Z,98167.44
2023-02-02T05:55:22.016Z,98167.34
2023-02-02T05:57:48.821Z,98162.91
2023-02-02T06:00:15.756Z,98174.97
2023-02-02T06:02:42.461Z,98167.03
2023-02-02T06:05:09.353Z,98175.19
2023-02-02T06:07:35.973Z,98176.34
2023-02-02T06:10:02.646Z,98171.88
2023-02-02T06:12:29.264Z,98174.25
2023-02-02T06:14:55.921Z,98184.75
2023-02-02T06:17:22.586Z,98187.25
2023-02-02T06:19:49.223Z,98184.84
2023-02-02T06:22:15.879Z,98183.75
2023-02-02T06:24:42.531Z,98197.25
2023-02-02T06:27:09.196Z,98190.88
2023-02-02T06:29:35.826Z,98196.91
2023-02-02T06:32:02.518Z,98191.28
2023-02-02T06:34:29.157Z,98186.91
2023-02-02T06:36:55.797Z,98195.75
2023-02-02T06:39:22.431Z,98192.34
2023-02-02T06:41:49.078Z,98197.53
2023-02-02T06:44:15.709Z,98201.06
2023-02-02T06:46:42.545Z,98206.34
2023-02-02T06:49:09.200Z,98192.22
2023-02-02T06:51:35.832Z,98201.25
2023-02-02T06:54:02.497Z,98188.66
2023-02-02T06:56:29.325Z,98195.41
2023-02-02T06:58:56.012Z,98199.00
2023-02-02T07:01:22.717Z,98193.19
2023-02-02T07:03:49.377Z,98188.59
2023-02-02T07:06:24.003Z,98193.50
2023-02-02T07:09:01.185Z,98185.47
2023-02-02T07:11:35.616Z,98195.34
2023-02-02T07:14:04.529Z,98192.13
2023-02-02T07:16:31.175Z,98196.50
2023-02-02T07:18:57.832Z,98202.75
2023-02-02T07:21:25.831Z,98196.28
2023-02-02T07:23:52.459Z,98195.09
2023-02-02T07:26:19.319Z,98197.88
2023-02-02T07:28:46.072Z,98191.00
2023-02-02T07:31:23.746Z,98192.44
2023-02-02T07:33:50.422Z,98189.56
2023-02-02T07:36:18.655Z,98192.66
2023-02-02T07:38:46.008Z,98195.72
2023-02-02T07:41:13.102Z,98198.16
2023-02-02T07:43:39.799Z,98197.38
2023-02-02T07:46:07.135Z,98204.06
2023-02-02T07:48:34.329Z,98197.13
2023-02-02T07:51:01.620Z,98199.06
2023-02-02T07:53:28.422Z,98204.72
2023-02-02T07:56:10.655Z,98211.63
2023-02-02T07:58:37.327Z,98220.22
2023-02-02T08:01:04.904Z,98216.41
2023-02-02T08:03:31.586Z,98225.50
2023-02-02T08:05:58.330Z,98220.91
2023-02-02T08:08:24.988Z,98217.56
2023-02-02T08:10:52.066Z,98209.22
2023-02-02T08:13:18.821Z,98214.63
2023-02-02T08:15:45.453Z,98202.84
2023-02-02T08:18:12.215Z,98201.47
2023-02-02T08:20:38.891Z,98201.25
2023-02-02T08:23:05.505Z,98198.75
2023-02-02T08:25:32.132Z,98193.69
2023-02-02T08:27:58.877Z,98198.25
2023-02-02T08:30:25.647Z,98198.28
2023-02-02T08:32:52.380Z,98200.13
2023-02-02T08:35:19.031Z,98211.72
2023-02-02T08:37:48.258Z,98213.81
2023-02-02T08:40:15.009Z,98218.53
2023-02-02T08:42:41.707Z,98211.53
2023-02-02T08:46:02.112Z,98211.47
2023-02-02T08:48:09.523Z,98214.66
2023-02-02T08:50:37.781Z,98220.78
2023-02-02T08:53:04.420Z,98223.25
2023-02-02T08:55:31.054Z,98236.41
2023-02-02T08:57:57.706Z,98239.53
2023-02-02T09:00:24.348Z,98234.25
2023-02-02T09:02:51.219Z,98234.53
2023-02-02T09:05:17.853Z,98243.69
2023-02-02T09:07:44.492Z,98250.66
2023-02-02T09:10:11.169Z,98260.56
2023-02-02T09:12:37.805Z,98262.78
2023-02-02T09:15:04.775Z,98252.53
2023-02-02T09:17:31.430Z,98251.88
2023-02-02T09:19:58.180Z,98247.94
2023-02-02T09:22:24.822Z,98244.53
2023-02-02T09:24:51.464Z,98241.69
2023-02-02T09:27:18.103Z,98247.22
2023-02-02T09:29:44.736Z,98245.88
2023-02-02T09:32:11.471Z,98251.94
2023-02-02T09:34:40.067Z,98246.34
2023-02-02T09:37:06.801Z,98249.13
2023-02-02T09:39:33.482Z,98255.41
2023-02-02T09:42:00.116Z,98260.50
2023-02-02T09:44:29.333Z,98254.63
2023-02-02T09:47:10.963Z,98257.13
2023-02-02T09:49:52.343Z,98257.38
2023-02-02T09:52:23.757Z,98249.41
2023-02-02T09:54:50.465Z,98254.22
2023-02-02T09:57:19.920Z,98265.72
2023-02-02T09:59:46.550Z,98265.81
2023-02-02T10:02:38.926Z,98268.75
2023-02-02T10:05:13.515Z,98264.03
2023-02-02T10:07:42.254Z,98262.78
2023-02-02T10:10:16.091Z,98265.88
2023-02-02T10:12:54.660Z,98270.53
2023-02-02T10:15:42.310Z,98268.91
2023-02-02T10:18:23.644Z,98274.88
2023-02-02T10:20:59.005Z,98286.69
2023-02-02T10:23:40.603Z,98286.78
2023-02-02T10:26:19.259Z,98294.56
2023-02-02T10:29:25.239Z,98289.56
2023-02-02T10:32:15.738Z,98293.97
2023-02-02T10:34:43.022Z,98296.78
2023-02-02T10:37:34.557Z,98294.19
2023-02-02T10:40:13.384Z,98294.38
2023-02-02T10:43:40.125Z,98296.88
2023-02-02T10:46:10.355Z,98311.00
2023-02-02T10:48:37.050Z,98306.41
2023-02-02T10:51:32.084Z,98310.28
2023-02-02T10:53:59.536Z,98306.75
2023-02-02T10:56:32.662Z,98304.31
2023-02-02T10:59:20.750Z,98304.66
2023-02-02T11:01:47.415Z,98297.34
2023-02-02T11:04:14.081Z,98298.69
2023-02-02T11:06:40.729Z,98301.09
2023-02-02T11:09:08.853Z,98300.63
2023-02-02T11:11:39.965Z,98297.50
2023-02-02T11:14:09.567Z,98306.91
2023-02-02T11:16:43.157Z,98309.22
2023-02-02T11:19:22.882Z,98310.22
2023-02-02T11:21:51.249Z,98309.31
2023-02-02T11:24:21.948Z,98299.72
2023-02-02T11:26:50.535Z,98306.28
2023-02-02T11:29:31.586Z,98296.28
2023-02-02T11:31:58.391Z,98295.72
2023-02-02T11:34:29.065Z,98292.31
2023-02-02T11:37:22.164Z,98293.41
2023-02-02T11:39:48.809Z,98298.09
2023-02-02T11:42:20.139Z,98300.09
2023-02-02T11:44:58.212Z,98294.19
2023-02-02T11:47:32.623Z,98297.03
2023-02-02T11:50:01.083Z,98290.28
2023-02-02T11:52:32.098Z,98291.25
2023-02-02T11:55:00.906Z,98288.50
2023-02-02T11:57:28.226Z,98290.44
2023-02-02T12:00:27.748Z,98285.63
2023-02-02T12:02:54.522Z,98287.19
2023-02-02T12:05:21.010Z,98282.25
2023-02-02T12:07:47.982Z,98277.16
2023-02-02T12:10:28.677Z,98277.53
2023-02-02T12:13:20.023Z,98268.63
2023-02-02T12:15:46.524Z,98268.31
2023-02-02T12:18:22.143Z,98265.50
2023-02-02T12:20:57.470Z,98261.28
2023-02-02T12:23:27.016Z,98255.88
2023-02-02T12:25:59.261Z,98253.31
2023-02-02T12:28:28.912Z,98252.16
2023-02-02T12:31:23.564Z,98252.97
2023-02-02T12:34:41.398Z,98259.56
2023-02-02T12:37:13.553Z,98264.13
2023-02-02T12:40:00.264Z,98262.88
2023-02-02T12:42:38.481Z,98256.38
2023-02-02T12:45:42.126Z,98256.69
2023-02-02T12:48:26.067Z,98263.41
2023-02-02T12:50:55.601Z,98259.56
2023-02-02T12:54:33.671Z,98250.88
2023-02-02T12:56:48.149Z,98245.66
2023-02-02T12:59:55.039Z,98260.06
2023-02-02T13:02:35.039Z,98261.47
2023-02-02T13:05:29.529Z,98250.59
2023-02-02T13:07:58.276Z,98255.25
2023-02-02T13:10:39.782Z,98247.22
2023-02-02T13:13:27.378Z,98245.53
2023-02-02T13:16:08.530Z,98255.66
2023-02-02T13:18:41.331Z,98240.09
2023-02-02T13:21:12.251Z,98245.84
2023-02-02T13:23:59.507Z,98255.88
2023-02-02T13:26:27.837Z,98262.91
2023-02-02T13:29:03.166Z,98255.75
2023-02-02T13:31:50.725Z,98254.66
2023-02-02T13:34:39.776Z,98248.25
2023-02-02T13:37:37.697Z,98244.41
2023-02-02T13:40:27.842Z,98234.19
2023-02-02T13:43:25.280Z,98232.28
2023-02-02T13:46:07.050Z,98231.81
2023-02-02T13:48:53.204Z,98236.91
2023-02-02T13:51:30.181Z,98236.97
2023-02-02T13:54:18.395Z,98239.94
2023-02-02T13:56:56.202Z,98240.53
2023-02-02T14:00:00.997Z,98237.81
2023-02-02T14:02:47.717Z,98238.47
2023-02-02T14:05:22.141Z,98244.75
2023-02-02T14:07:48.786Z,98243.19
2023-02-02T14:10:25.613Z,98249.38
2023-02-02T14:12:52.553Z,98247.13
2023-02-02T14:15:19.203Z,98265.91
2023-02-02T14:17:45.728Z,98259.03
2023-02-02T14:20:45.870Z,98262.88
2023-02-02T14:23:50.009Z,98253.00
2023-02-02T14:26:48.450Z,98257.25
2023-02-02T14:29:27.383Z,98259.78
2023-02-02T14:31:54.382Z,98263.47
2023-02-02T14:34:36.666Z,98257.81
2023-02-02T14:37:24.567Z,98270.94
2023-02-02T14:40:07.405Z,98265.97
2023-02-02T14:42:55.334Z,98271.34
2023-02-02T14:45:30.239Z,98276.16
2023-02-02T14:48:00.938Z,98271.78
2023-02-02T14:50:46.051Z,98275.59
2023-02-02T14:53:12.578Z,98285.88
2023-02-02T14:56:05.143Z,98297.56
2023-02-02T14:58:43.464Z,98290.94
2023-02-02T15:01:19.220Z,98291.50
2023-02-02T15:03:48.380Z,98290.22
2023-02-02T15:06:24.082Z,98292.06
2023-02-02T15:09:21.669Z,98291.22
2023-02-02T15:12:01.647Z,98294.28
2023-02-02T15:15:02.574Z,98286.41
2023-02-02T15:17:39.050Z,98280.81
2023-02-02T15:20:20.804Z,98292.63
2023-02-02T15:22:47.770Z,98294.41
2023-02-02T15:25:21.866Z,98303.31
2023-02-02T15:28:18.880Z,98300.09
2023-02-02T15:30:47.382Z,98297.25
2023-02-02T15:33:23.827Z,98306.25
2023-02-02T15:35:50.460Z,98299.38
2023-02-02T15:38:17.109Z,98300.50
2023-02-02T15:40:44.018Z,98311.75
2023-02-02T15:43:10.684Z,98308.91
2023-02-02T15:45:43.307Z,98313.00
2023-02-02T15:48:18.848Z,98307.63
2023-02-02T15:50:45.894Z,98319.41
2023-02-02T15:53:20.260Z,98314.31
2023-02-02T15:55:47.098Z,98314.53
2023-02-02T15:58:30.040Z,98313.00
2023-02-02T16:01:06.938Z,98310.03
2023-02-02T16:04:13.419Z,98323.34
2023-02-02T16:06:40.101Z,98323.03
2023-02-02T16:09:06.765Z,98327.38
2023-02-02T16:11:33.410Z,98321.00
2023-02-02T16:14:02.392Z,98335.88
2023-02-02T16:16:33.402Z,98350.53
2023-02-02T16:19:06.099Z,98355.09
2023-02-02T16:21:33.008Z,98353.47
2023-02-02T16:23:59.625Z,98361.25
2023-02-02T16:26:28.968Z,98365.81
2023-02-02T16:28:55.603Z,98372.63
2023-02-02T16:31:22.370Z,98369.38
2023-02-02T16:33:49.021Z,98367.94
2023-02-02T16:36:25.678Z,98371.69
2023-02-02T16:38:53.535Z,98369.56
2023-02-02T16:41:28.880Z,98368.22
2023-02-02T16:43:55.615Z,98379.78
2023-02-02T16:46:43.483Z,98380.38
2023-02-02T16:49:22.693Z,98374.22
2023-02-02T16:52:07.000Z,98376.66
2023-02-02T16:54:33.705Z,98377.75
2023-02-02T16:57:00.883Z,98379.97
2023-02-02T16:59:31.883Z,98380.44
2023-02-02T17:02:19.211Z,98372.00
2023-02-02T17:04:47.897Z,98389.44
2023-02-02T17:07:14.560Z,98393.56
2023-02-02T17:09:41.885Z,98398.44
2023-02-02T17:12:32.292Z,98412.38
2023-02-02T17:15:01.789Z,98406.56
2023-02-02T17:17:28.466Z,98416.00
2023-02-02T17:19:55.081Z,98409.84
2023-02-02T17:22:23.109Z,98418.78
2023-02-02T17:24:50.666Z,98412.81
2023-02-02T17:27:26.764Z,98407.38
2023-02-02T17:29:53.573Z,98412.81
2023-02-02T17:32:20.252Z,98412.81
2023-02-02T17:34:46.899Z,98412.94
2023-02-02T17:37:13.566Z,98408.13
2023-02-02T17:39:40.239Z,98402.78
2023-02-02T17:42:06.947Z,98402.88
2023-02-02T17:44:33.797Z,98418.59
2023-02-02T17:47:00.465Z,98418.53
2023-02-02T17:49:27.109Z,98420.53
2023-02-02T17:51:54.195Z,98418.19
2023-02-02T17:54:20.995Z,98413.66
2023-02-02T17:56:47.675Z,98418.94
2023-02-02T17:59:14.390Z,98417.44
2023-02-02T18:01:41.100Z,98419.50
2023-02-02T18:04:07.814Z,98413.66
2023-02-02T18:06:34.439Z,98418.25
2023-02-02T18:09:01.090Z,98413.03
2023-02-02T18:11:27.750Z,98406.75
2023-02-02T18:13:54.450Z,98405.63
2023-02-02T18:16:22.118Z,98411.28
2023-02-02T18:18:48.765Z,98406.94
2023-02-02T18:21:15.413Z,98419.03
2023-02-02T18:23:42.052Z,98397.03
2023-02-02T18:26:13.415Z,98402.66
2023-02-02T18:28:40.275Z,98395.03
2023-02-02T18:31:08.378Z,98395.59
2023-02-02T18:33:35.121Z,98394.44
2023-02-02T18:36:01.759Z,98396.47
2023-02-02T18:38:28.415Z,98395.31
2023-02-02T18:40:56.489Z,98405.75
2023-02-02T18:43:23.141Z,98393.13
2023-02-02T18:46:04.116Z,98394.19
2023-02-02T18:48:30.742Z,98385.91
2023-02-02T18:50:57.799Z,98386.38
2023-02-02T18:53:24.457Z,98390.84
2023-02-02T18:55:51.105Z,98392.09
2023-02-02T18:58:17.792Z,98384.38
2023-02-02T19:00:44.429Z,98393.28
2023-02-02T19:03:11.092Z,98398.69
2023-02-02T19:05:37.717Z,98388.09
2023-02-02T19:08:04.394Z,98400.59
2023-02-02T19:10:31.032Z,98405.47
2023-02-02T19:13:18.622Z,98404.09
2023-02-02T19:15:48.402Z,98410.47
2023-02-02T19:18:16.704Z,98415.75
2023-02-02T19:20:43.358Z,98410.03
2023-02-02T19:23:17.701Z,98417.47
2023-02-02T19:25:51.026Z,98423.94
2023-02-02T19:28:30.036Z,98419.59
2023-02-02T19:30:58.077Z,98417.69
2023-02-02T19:33:34.857Z,98430.31
2023-02-02T19:36:01.527Z,98430.31
2023-02-02T19:38:29.314Z,98431.91
2023-02-02T19:40:55.973Z,98432.09
2023-02-02T19:43:26.873Z,98432.81
2023-02-02T19:45:54.339Z,98436.31
2023-02-02T19:48:24.799Z,98438.09
2023-02-02T19:50:51.444Z,98440.66
2023-02-02T19:53:20.967Z,98433.53
2023-02-02T19:55:49.885Z,98431.78
2023-02-02T19:58:26.685Z,98436.00
2023-02-02T20:00:53.742Z,98439.41
2023-02-02T20:03:24.665Z,98444.84
2023-02-02T20:05:51.980Z,98433.91
2023-02-02T20:08:21.272Z,98437.72
2023-02-02T20:10:47.922Z,98434.97
2023-02-02T20:13:20.555Z,98429.38
2023-02-02T20:15:48.218Z,98425.97
2023-02-02T20:18:37.806Z,98432.31
2023-02-02T20:21:04.473Z,98434.63
2023-02-02T20:23:41.802Z,98430.16
2023-02-02T20:26:24.000Z,98425.81
2023-02-02T20:28:50.734Z,98418.06
2023-02-02T20:31:18.942Z,98424.19
2023-02-02T20:33:48.509Z,98420.97
2023-02-02T20:36:42.801Z,98419.47
2023-02-02T20:39:21.400Z,98415.22
2023-02-02T20:41:48.196Z,98426.97
2023-02-02T20:44:14.924Z,98411.16
2023-02-02T20:46:41.581Z,98417.75
2023-02-02T20:49:08.233Z,98419.19
2023-02-02T20:51:34.851Z,98424.38
2023-02-02T20:54:01.604Z,98424.59
2023-02-02T20:56:28.283Z,98425.81
2023-02-02T20:58:54.932Z,98421.47
2023-02-02T21:01:21.602Z,98437.47
2023-02-02T21:03:48.534Z,98430.28
2023-02-02T21:06:15.175Z,98431.81
2023-02-02T21:08:41.828Z,98426.53
2023-02-02T21:11:08.477Z,98434.63
2023-02-02T21:13:35.176Z,98439.63
2023-02-02T21:16:02.081Z,98445.13
2023-02-02T21:18:28.769Z,98440.06
2023-02-02T21:20:55.472Z,98435.25
2023-02-02T21:23:22.120Z,98437.97
2023-02-02T21:25:51.248Z,98444.31
2023-02-02T21:28:17.885Z,98438.63
2023-02-02T21:30:44.673Z,98434.28
2023-02-02T21:33:11.520Z,98438.16
2023-02-02T21:35:38.170Z,98440.28
2023-02-02T21:38:07.609Z,98435.25
2023-02-02T21:40:34.298Z,98440.81
2023-02-02T21:43:01.832Z,98431.44
2023-02-02T21:45:36.031Z,98436.03
2023-02-02T21:48:05.890Z,98443.16
2023-02-02T21:50:37.360Z,98438.19
2023-02-02T21:53:09.822Z,98450.31
2023-02-02T21:55:37.778Z,98447.44
2023-02-02T21:58:34.506Z,98448.59
2023-02-02T22:01:19.878Z,98446.81
2023-02-02T22:03:47.802Z,98452.03
2023-02-02T22:06:37.478Z,98459.47
2023-02-02T22:09:13.109Z,98462.13
2023-02-02T22:11:58.560Z,98459.09
2023-02-02T22:14:38.302Z,98468.16
2023-02-02T22:17:29.345Z,98460.78
2023-02-02T22:20:01.843Z,98470.44
2023-02-02T22:22:32.699Z,98474.56
2023-02-02T22:25:02.161Z,98472.03
2023-02-02T22:27:39.784Z,98470.53
2023-02-02T22:30:25.573Z,98472.03
2023-02-02T22:32:52.864Z,98467.88
2023-02-02T22:35:19.521Z,98477.44
2023-02-02T22:37:46.180Z,98479.22
2023-02-02T22:40:12.946Z,98481.78
2023-02-02T22:42:39.570Z,98472.75
2023-02-02T22:45:06.592Z,98479.69
2023-02-02T22:47:33.253Z,98483.84
2023-02-02T22:49:59.878Z,98481.19
2023-02-02T22:52:26.532Z,98484.69
2023-02-02T22:54:53.177Z,98484.50
2023-02-02T22:57:19.783Z,98498.31
2023-02-02T22:59:46.471Z,98488.34
2023-02-02T23:02:13.133Z,98493.38
2023-02-02T23:04:39.772Z,98489.81
2023-02-02T23:07:06.418Z,98491.09
2023-02-02T23:09:33.072Z,98494.50
2023-02-02T23:11:59.798Z,98498.97
2023-02-02T23:14:27.265Z,98507.66
2023-02-02T23:16:54.859Z,98513.94
2023-02-02T23:19:22.451Z,98516.50
2023-02-02T23:21:50.040Z,98513.88
2023-02-02T23:24:16.675Z,98531.91
2023-02-02T23:26:43.313Z,98531.63
2023-02-02T23:29:09.995Z,98535.75
2023-02-02T23:31:36.818Z,98538.06
2023-02-02T23:34:03.575Z,98533.44
2023-02-02T23:36:30.242Z,98542.34
2023-02-02T23:38:56.912Z,98545.06
2023-02-02T23:44:49.048Z,98545.31
2023-02-02T23:53:16.671Z,98545.75
2023-02-02T23:55:44.263Z,98545.75
2023-02-02T23:58:11.871Z,98551.06
